sensor_id;sensor_type;location;lat;lon;timestamp;pressure;altitude;pressure_sealevel;temperature
45701;BMP280;36277;32.852;-116.998;2024-01-15T00:00:50;100080.13;;;24.70
45701;BMP280;36277;32.852;-116.998;2024-01-15T00:03:16;100079.59;;;24.81
45701;BMP280;36277;32.852;-116.998;2024-01-15T00:05:43;100077.16;;;24.93
45701;BMP280;36277;32.852;-116.998;2024-01-15T00:08:09;100087.84;;;25.02
45701;BMP280;36277;32.852;-116.998;2024-01-15T00:10:36;100083.41;;;25.08
45701;BMP280;36277;32.852;-116.998;2024-01-15T00:13:02;100090.25;;;25.12
45701;BMP280;36277;32.852;-116.998;2024-01-15T00:15:28;100088.41;;;25.19
45701;BMP280;36277;32.852;-116.998;2024-01-15T00:17:55;100094.59;;;25.21
45701;BMP280;36277;32.852;-116.998;2024-01-15T00:20:22;100096.34;;;25.28
45701;BMP280;36277;32.852;-116.998;2024-01-15T00:22:48;100100.19;;;25.33
45701;BMP280;36277;32.852;-116.998;2024-01-15T00:25:15;100103.63;;;25.35
45701;BMP280;36277;32.852;-116.998;2024-01-15T00:27:41;100117.88;;;25.39
45701;BMP280;36277;32.852;-116.998;2024-01-15T00:30:08;100115.09;;;25.39
45701;BMP280;36277;32.852;-116.998;2024-01-15T00:32:35;100119.78;;;25.38
45701;BMP280;36277;32.852;-116.998;2024-01-15T00:35:01;100110.88;;;25.43
45701;BMP280;36277;32.852;-116.998;2024-01-15T00:37:29;100116.22;;;25.44
45701;BMP280;36277;32.852;-116.998;2024-01-15T00:39:55;100114.31;;;25.45
45701;BMP280;36277;32.852;-116.998;2024-01-15T00:42:22;100112.59;;;25.44
45701;BMP280;36277;32.852;-116.998;2024-01-15T00:44:49;100108.78;;;25.45
45701;BMP280;36277;32.852;-116.998;2024-01-15T00:47:15;100108.38;;;25.48
45701;BMP280;36277;32.852;-116.998;2024-01-15T00:49:44;100110.69;;;25.44
45701;BMP280;36277;32.852;-116.998;2024-01-15T00:52:11;100112.81;;;25.42
45701;BMP280;36277;32.852;-116.998;2024-01-15T00:54:38;100121.50;;;25.39
45701;BMP280;36277;32.852;-116.998;2024-01-15T00:57:06;100110.84;;;25.36
45701;BMP280;36277;32.852;-116.998;2024-01-15T00:59:33;100111.25;;;25.33
45701;BMP280;36277;32.852;-116.998;2024-01-15T01:02:00;100130.59;;;25.33
45701;BMP280;36277;32.852;-116.998;2024-01-15T01:04:28;100119.94;;;25.30
45701;BMP280;36277;32.852;-116.998;2024-01-15T01:06:57;100123.09;;;25.27
45701;BMP280;36277;32.852;-116.998;2024-01-15T01:09:24;100118.63;;;25.27
45701;BMP280;36277;32.852;-116.998;2024-01-15T01:11:51;100124.38;;;25.25
45701;BMP280;36277;32.852;-116.998;2024-01-15T01:14:19;100125.63;;;25.23
45701;BMP280;36277;32.852;-116.998;2024-01-15T01:16:51;100121.78;;;25.24
45701;BMP280;36277;32.852;-116.998;2024-01-15T01:19:38;100131.56;;;25.20
45701;BMP280;36277;32.852;-116.998;2024-01-15T01:22:05;100137.94;;;25.20
45701;BMP280;36277;32.852;-116.998;2024-01-15T01:24:34;100140.91;;;25.19
45701;BMP280;36277;32.852;-116.998;2024-01-15T01:27:01;100140.25;;;25.17
45701;BMP280;36277;32.852;-116.998;2024-01-15T01:29:28;100143.19;;;25.15
45701;BMP280;36277;32.852;-116.998;2024-01-15T01:31:55;100146.16;;;25.14
45701;BMP280;36277;32.852;-116.998;2024-01-15T01:34:23;100150.13;;;25.11
45701;BMP280;36277;32.852;-116.998;2024-01-15T01:36:51;100145.47;;;25.12
45701;BMP280;36277;32.852;-116.998;2024-01-15T01:39:41;100142.44;;;25.07
45701;BMP280;36277;32.852;-116.998;2024-01-15T01:42:09;100152.66;;;25.06
45701;BMP280;36277;32.852;-116.998;2024-01-15T01:44:56;100153.91;;;25.04
45701;BMP280;36277;32.852;-116.998;2024-01-15T01:47:24;100156.47;;;25.05
45701;BMP280;36277;32.852;-116.998;2024-01-15T01:49:53;100165.81;;;25.04
45701;BMP280;36277;32.852;-116.998;2024-01-15T01:52:41;100173.63;;;25.01
45701;BMP280;36277;32.852;-116.998;2024-01-15T01:55:09;100171.72;;;25.01
45701;BMP280;36277;32.852;-116.998;2024-01-15T01:57:38;100177.66;;;24.98
45701;BMP280;36277;32.852;-116.998;2024-01-15T02:00:09;100174.66;;;25.00
45701;BMP280;36277;32.852;-116.998;2024-01-15T02:02:37;100169.56;;;24.97
45701;BMP280;36277;32.852;-116.998;2024-01-15T02:05:06;100174.66;;;25.00
45701;BMP280;36277;32.852;-116.998;2024-01-15T02:07:35;100182.97;;;25.00
45701;BMP280;36277;32.852;-116.998;2024-01-15T02:10:03;100186.59;;;25.00
45701;BMP280;36277;32.852;-116.998;2024-01-15T02:12:32;100194.66;;;25.02
45701;BMP280;36277;32.852;-116.998;2024-01-15T02:15:00;100199.78;;;25.05
45701;BMP280;36277;32.852;-116.998;2024-01-15T02:17:27;100191.50;;;25.05
45701;BMP280;36277;32.852;-116.998;2024-01-15T02:19:56;100186.63;;;25.07
45701;BMP280;36277;32.852;-116.998;2024-01-15T02:22:23;100199.41;;;25.08
45701;BMP280;36277;32.852;-116.998;2024-01-15T02:24:50;100214.91;;;25.09
45701;BMP280;36277;32.852;-116.998;2024-01-15T02:27:19;100222.81;;;25.12
45701;BMP280;36277;32.852;-116.998;2024-01-15T02:29:48;100220.06;;;25.12
45701;BMP280;36277;32.852;-116.998;2024-01-15T02:32:15;100205.38;;;25.11
45701;BMP280;36277;32.852;-116.998;2024-01-15T02:34:42;100216.25;;;25.13
45701;BMP280;36277;32.852;-116.998;2024-01-15T02:37:12;100220.53;;;25.15
45701;BMP280;36277;32.852;-116.998;2024-01-15T02:39:41;100225.34;;;25.13
45701;BMP280;36277;32.852;-116.998;2024-01-15T02:42:10;100230.88;;;25.13
45701;BMP280;36277;32.852;-116.998;2024-01-15T02:44:38;100236.25;;;25.15
45701;BMP280;36277;32.852;-116.998;2024-01-15T02:47:05;100230.03;;;25.13
45701;BMP280;36277;32.852;-116.998;2024-01-15T02:49:33;100231.78;;;25.14
45701;BMP280;36277;32.852;-116.998;2024-01-15T02:52:00;100240.91;;;25.14
45701;BMP280;36277;32.852;-116.998;2024-01-15T02:54:27;100246.63;;;25.13
45701;BMP280;36277;32.852;-116.998;2024-01-15T02:57:14;100247.88;;;25.10
45701;BMP280;36277;32.852;-116.998;2024-01-15T02:59:41;100245.75;;;25.12
45701;BMP280;36277;32.852;-116.998;2024-01-15T03:02:09;100246.63;;;25.13
45701;BMP280;36277;32.852;-116.998;2024-01-15T03:04:36;100249.56;;;25.11
45701;BMP280;36277;32.852;-116.998;2024-01-15T03:07:04;100250.44;;;25.12
45701;BMP280;36277;32.852;-116.998;2024-01-15T03:09:31;100249.56;;;25.11
45701;BMP280;36277;32.852;-116.998;2024-01-15T03:12:00;100264.03;;;25.13
45701;BMP280;36277;32.852;-116.998;2024-01-15T03:14:27;100255.94;;;25.12
45701;BMP280;36277;32.852;-116.998;2024-01-15T03:16:56;100250.44;;;25.12
45701;BMP280;36277;32.852;-116.998;2024-01-15T03:19:22;100255.09;;;25.11
45701;BMP280;36277;32.852;-116.998;2024-01-15T03:21:51;100264.44;;;25.10
45701;BMP280;36277;32.852;-116.998;2024-01-15T03:24:18;100269.09;;;25.10
45701;BMP280;36277;32.852;-116.998;2024-01-15T03:26:45;100271.22;;;25.08
45701;BMP280;36277;32.852;-116.998;2024-01-15T03:29:13;100261.69;;;25.10
45701;BMP280;36277;32.852;-116.998;2024-01-15T03:31:39;100260.16;;;25.08
45701;BMP280;36277;32.852;-116.998;2024-01-15T03:34:10;100265.69;;;25.08
45701;BMP280;36277;32.852;-116.998;2024-01-15T03:36:37;100266.34;;;25.10
45701;BMP280;36277;32.852;-116.998;2024-01-15T03:39:05;100270.81;;;25.11
45701;BMP280;36277;32.852;-116.998;2024-01-15T03:41:32;100255.28;;;25.10
45701;BMP280;36277;32.852;-116.998;2024-01-15T03:44:00;100259.09;;;25.09
45701;BMP280;36277;32.852;-116.998;2024-01-15T03:46:27;100257.41;;;25.08
45701;BMP280;36277;32.852;-116.998;2024-01-15T03:48:56;100259.50;;;25.06
45701;BMP280;36277;32.852;-116.998;2024-01-15T03:51:26;100253.97;;;25.06
45701;BMP280;36277;32.852;-116.998;2024-01-15T03:53:52;100263.69;;;25.02
45701;BMP280;36277;32.852;-116.998;2024-01-15T03:56:19;100272.84;;;25.02
45701;BMP280;36277;32.852;-116.998;2024-01-15T03:58:46;100277.72;;;25.00
45701;BMP280;36277;32.852;-116.998;2024-01-15T04:01:13;100270.47;;;24.99
45701;BMP280;36277;32.852;-116.998;2024-01-15T04:03:40;100269.81;;;24.97
45701;BMP280;36277;32.852;-116.998;2024-01-15T04:06:07;100272.78;;;24.96
45701;BMP280;36277;32.852;-116.998;2024-01-15T04:08:33;100267.44;;;24.94
45701;BMP280;36277;32.852;-116.998;2024-01-15T04:11:00;100280.41;;;24.94
45701;BMP280;36277;32.852;-116.998;2024-01-15T04:13:27;100272.31;;;24.92
45701;BMP280;36277;32.852;-116.998;2024-01-15T04:15:54;100286.31;;;24.91
45701;BMP280;36277;32.852;-116.998;2024-01-15T04:18:23;100286.31;;;24.91
45701;BMP280;36277;32.852;-116.998;2024-01-15T04:20:50;100282.03;;;24.88
45701;BMP280;36277;32.852;-116.998;2024-01-15T04:23:17;100283.28;;;24.86
45701;BMP280;36277;32.852;-116.998;2024-01-15T04:25:44;100282.41;;;24.85
45701;BMP280;36277;32.852;-116.998;2024-01-15T04:28:12;100286.25;;;24.84
45701;BMP280;36277;32.852;-116.998;2024-01-15T04:30:39;100281.97;;;24.82
45701;BMP280;36277;32.852;-116.998;2024-01-15T04:33:06;100280.25;;;24.81
45701;BMP280;36277;32.852;-116.998;2024-01-15T04:35:33;100280.25;;;24.81
45701;BMP280;36277;32.852;-116.998;2024-01-15T04:38:01;100276.00;;;24.78
45701;BMP280;36277;32.852;-116.998;2024-01-15T04:40:27;100272.56;;;24.76
45701;BMP280;36277;32.852;-116.998;2024-01-15T04:42:55;100273.41;;;24.77
45701;BMP280;36277;32.852;-116.998;2024-01-15T04:45:41;100279.31;;;24.74
45701;BMP280;36277;32.852;-116.998;2024-01-15T04:48:08;100284.00;;;24.73
45701;BMP280;36277;32.852;-116.998;2024-01-15T04:50:35;100277.59;;;24.73
45701;BMP280;36277;32.852;-116.998;2024-01-15T04:53:01;100275.91;;;24.72
45701;BMP280;36277;32.852;-116.998;2024-01-15T04:55:28;100266.97;;;24.70
45701;BMP280;36277;32.852;-116.998;2024-01-15T04:57:54;100266.97;;;24.70
45701;BMP280;36277;32.852;-116.998;2024-01-15T05:00:21;100268.03;;;24.69
45701;BMP280;36277;32.852;-116.998;2024-01-15T05:02:47;100267.34;;;24.67
45701;BMP280;36277;32.852;-116.998;2024-01-15T05:05:13;100262.88;;;24.66
45701;BMP280;36277;32.852;-116.998;2024-01-15T05:07:40;100258.41;;;24.65
45701;BMP280;36277;32.852;-116.998;2024-01-15T05:10:07;100256.69;;;24.64
45701;BMP280;36277;32.852;-116.998;2024-01-15T05:12:33;100264.31;;;24.62
45701;BMP280;36277;32.852;-116.998;2024-01-15T05:14:59;100257.25;;;24.59
45701;BMP280;36277;32.852;-116.998;2024-01-15T05:17:26;100264.69;;;24.59
45701;BMP280;36277;32.852;-116.998;2024-01-15T05:19:52;100266.63;;;24.58
45701;BMP280;36277;32.852;-116.998;2024-01-15T05:22:18;100261.28;;;24.57
45701;BMP280;36277;32.852;-116.998;2024-01-15T05:24:45;100263.00;;;24.58
45701;BMP280;36277;32.852;-116.998;2024-01-15T05:27:11;100263.00;;;24.58
45701;BMP280;36277;32.852;-116.998;2024-01-15T05:29:37;100266.78;;;24.57
45701;BMP280;36277;32.852;-116.998;2024-01-15T05:32:04;100261.47;;;24.55
45701;BMP280;36277;32.852;-116.998;2024-01-15T05:34:30;100268.88;;;24.55
45701;BMP280;36277;32.852;-116.998;2024-01-15T05:36:56;100272.69;;;24.54
45701;BMP280;36277;32.852;-116.998;2024-01-15T05:39:22;100270.16;;;24.52
45701;BMP280;36277;32.852;-116.998;2024-01-15T05:41:49;100275.84;;;24.51
45701;BMP280;36277;32.852;-116.998;2024-01-15T05:44:15;100276.88;;;24.50
45701;BMP280;36277;32.852;-116.998;2024-01-15T05:46:41;100272.41;;;24.49
45701;BMP280;36277;32.852;-116.998;2024-01-15T05:49:08;100272.63;;;24.47
45701;BMP280;36277;32.852;-116.998;2024-01-15T05:51:34;100286.59;;;24.46
45701;BMP280;36277;32.852;-116.998;2024-01-15T05:54:00;100293.16;;;24.45
45701;BMP280;36277;32.852;-116.998;2024-01-15T05:56:27;100287.34;;;24.40
45701;BMP280;36277;32.852;-116.998;2024-01-15T05:58:53;100285.81;;;24.37
45701;BMP280;36277;32.852;-116.998;2024-01-15T06:01:19;100277.91;;;24.34
45701;BMP280;36277;32.852;-116.998;2024-01-15T06:03:45;100280.22;;;24.31
45701;BMP280;36277;32.852;-116.998;2024-01-15T06:06:12;100279.56;;;24.29
45701;BMP280;36277;32.852;-116.998;2024-01-15T06:08:39;100281.47;;;24.28
45701;BMP280;36277;32.852;-116.998;2024-01-15T06:11:06;100286.31;;;24.26
45701;BMP280;36277;32.852;-116.998;2024-01-15T06:13:33;100282.88;;;24.24
45701;BMP280;36277;32.852;-116.998;2024-01-15T06:16:00;100289.63;;;24.22
45701;BMP280;36277;32.852;-116.998;2024-01-15T06:18:26;100290.88;;;24.19
45701;BMP280;36277;32.852;-116.998;2024-01-15T06:20:52;100283.84;;;24.17
45701;BMP280;36277;32.852;-116.998;2024-01-15T06:23:19;100288.50;;;24.16
45701;BMP280;36277;32.852;-116.998;2024-01-15T06:25:45;100288.88;;;24.13
45701;BMP280;36277;32.852;-116.998;2024-01-15T06:28:11;100291.16;;;24.10
45701;BMP280;36277;32.852;-116.998;2024-01-15T06:30:38;100289.44;;;24.09
45701;BMP280;36277;32.852;-116.998;2024-01-15T06:33:04;100295.34;;;24.06
45701;BMP280;36277;32.852;-116.998;2024-01-15T06:35:31;100293.63;;;24.05
45701;BMP280;36277;32.852;-116.998;2024-01-15T06:37:57;100294.00;;;24.02
45701;BMP280;36277;32.852;-116.998;2024-01-15T06:40:23;100296.09;;;24.00
45701;BMP280;36277;32.852;-116.998;2024-01-15T06:42:49;100288.88;;;23.99
45701;BMP280;36277;32.852;-116.998;2024-01-15T06:45:16;100297.50;;;23.96
45701;BMP280;36277;32.852;-116.998;2024-01-15T06:47:42;100287.72;;;23.94
45701;BMP280;36277;32.852;-116.998;2024-01-15T06:50:08;100298.09;;;23.92
45701;BMP280;36277;32.852;-116.998;2024-01-15T06:52:35;100297.25;;;23.91
45701;BMP280;36277;32.852;-116.998;2024-01-15T06:55:01;100284.50;;;23.90
45701;BMP280;36277;32.852;-116.998;2024-01-15T06:57:27;100289.53;;;23.87
45701;BMP280;36277;32.852;-116.998;2024-01-15T06:59:53;100296.94;;;23.86
45701;BMP280;36277;32.852;-116.998;2024-01-15T07:02:20;100290.97;;;23.83
45701;BMP280;36277;32.852;-116.998;2024-01-15T07:04:47;100285.63;;;23.81
45701;BMP280;36277;32.852;-116.998;2024-01-15T07:07:13;100289.44;;;23.80
45701;BMP280;36277;32.852;-116.998;2024-01-15T07:09:40;100292.38;;;23.79
45701;BMP280;36277;32.852;-116.998;2024-01-15T07:12:07;100299.06;;;23.76
45701;BMP280;36277;32.852;-116.998;2024-01-15T07:14:33;100293.56;;;23.76
45701;BMP280;36277;32.852;-116.998;2024-01-15T07:16:59;100294.81;;;23.74
45701;BMP280;36277;32.852;-116.998;2024-01-15T07:19:26;100300.47;;;23.72
45701;BMP280;36277;32.852;-116.998;2024-01-15T07:21:52;100305.31;;;23.70
45701;BMP280;36277;32.852;-116.998;2024-01-15T07:24:18;100302.56;;;23.70
45701;BMP280;36277;32.852;-116.998;2024-01-15T07:26:44;100311.25;;;23.67
45701;BMP280;36277;32.852;-116.998;2024-01-15T07:29:11;100303.34;;;23.64
45701;BMP280;36277;32.852;-116.998;2024-01-15T07:31:37;100309.91;;;23.63
45701;BMP280;36277;32.852;-116.998;2024-01-15T07:34:03;100306.47;;;23.61
45701;BMP280;36277;32.852;-116.998;2024-01-15T07:36:29;100297.53;;;23.59
45701;BMP280;36277;32.852;-116.998;2024-01-15T07:38:56;100297.53;;;23.59
45701;BMP280;36277;32.852;-116.998;2024-01-15T07:41:22;100303.41;;;23.56
45701;BMP280;36277;32.852;-116.998;2024-01-15T07:43:49;100298.94;;;23.55
45701;BMP280;36277;32.852;-116.998;2024-01-15T07:46:15;100301.22;;;23.52
45701;BMP280;36277;32.852;-116.998;2024-01-15T07:48:42;100298.63;;;23.50
45701;BMP280;36277;32.852;-116.998;2024-01-15T07:51:09;100296.25;;;23.47
45701;BMP280;36277;32.852;-116.998;2024-01-15T07:53:35;100292.66;;;23.47
45701;BMP280;36277;32.852;-116.998;2024-01-15T07:56:01;100290.94;;;23.46
45701;BMP280;36277;32.852;-116.998;2024-01-15T07:58:28;100293.91;;;23.44
45701;BMP280;36277;32.852;-116.998;2024-01-15T08:00:54;100287.03;;;23.40
45701;BMP280;36277;32.852;-116.998;2024-01-15T08:03:20;100289.78;;;23.40
45701;BMP280;36277;32.852;-116.998;2024-01-15T08:05:46;100288.91;;;23.40
45701;BMP280;36277;32.852;-116.998;2024-01-15T08:08:13;100288.25;;;23.38
45701;BMP280;36277;32.852;-116.998;2024-01-15T08:10:39;100281.22;;;23.35
45701;BMP280;36277;32.852;-116.998;2024-01-15T08:13:05;100280.56;;;23.33
45701;BMP280;36277;32.852;-116.998;2024-01-15T08:15:34;100286.22;;;23.32
45701;BMP280;36277;32.852;-116.998;2024-01-15T08:18:00;100275.41;;;23.30
45701;BMP280;36277;32.852;-116.998;2024-01-15T08:20:26;100281.28;;;23.27
45701;BMP280;36277;32.852;-116.998;2024-01-15T08:22:52;100278.72;;;23.26
45701;BMP280;36277;32.852;-116.998;2024-01-15T08:25:19;100265.13;;;23.24
45701;BMP280;36277;32.852;-116.998;2024-01-15T08:27:45;100271.66;;;23.23
45701;BMP280;36277;32.852;-116.998;2024-01-15T08:30:12;100273.94;;;23.20
45701;BMP280;36277;32.852;-116.998;2024-01-15T08:32:38;100276.03;;;23.18
45701;BMP280;36277;32.852;-116.998;2024-01-15T08:35:08;100269.84;;;23.16
45701;BMP280;36277;32.852;-116.998;2024-01-15T08:37:35;100271.75;;;23.15
45701;BMP280;36277;32.852;-116.998;2024-01-15T08:40:01;100266.63;;;23.12
45701;BMP280;36277;32.852;-116.998;2024-01-15T08:42:29;100260.44;;;23.10
45701;BMP280;36277;32.852;-116.998;2024-01-15T08:44:55;100261.47;;;23.09
45701;BMP280;36277;32.852;-116.998;2024-01-15T08:47:21;100269.91;;;23.08
45701;BMP280;36277;32.852;-116.998;2024-01-15T08:49:48;100278.31;;;23.06
45701;BMP280;36277;32.852;-116.998;2024-01-15T08:52:14;100276.63;;;23.05
45701;BMP280;36277;32.852;-116.998;2024-01-15T08:54:40;100271.47;;;23.02
45701;BMP280;36277;32.852;-116.998;2024-01-15T08:57:07;100278.00;;;23.01
45701;BMP280;36277;32.852;-116.998;2024-01-15T08:59:33;100266.31;;;22.99
45701;BMP280;36277;32.852;-116.998;2024-01-15T09:01:59;100261.19;;;22.97
45701;BMP280;36277;32.852;-116.998;2024-01-15T09:04:25;100268.41;;;22.98
45701;BMP280;36277;32.852;-116.998;2024-01-15T09:06:52;100275.97;;;22.96
45701;BMP280;36277;32.852;-116.998;2024-01-15T09:09:18;100269.16;;;22.92
45701;BMP280;36277;32.852;-116.998;2024-01-15T09:11:45;100267.44;;;22.91
45701;BMP280;36277;32.852;-116.998;2024-01-15T09:14:12;100266.78;;;22.89
45701;BMP280;36277;32.852;-116.998;2024-01-15T09:16:38;100266.94;;;22.87
45701;BMP280;36277;32.852;-116.998;2024-01-15T09:19:05;100273.47;;;22.86
45701;BMP280;36277;32.852;-116.998;2024-01-15T09:21:31;100266.44;;;22.84
45701;BMP280;36277;32.852;-116.998;2024-01-15T09:23:57;100270.25;;;22.83
45701;BMP280;36277;32.852;-116.998;2024-01-15T09:26:24;100273.16;;;22.81
45701;BMP280;36277;32.852;-116.998;2024-01-15T09:28:50;100276.09;;;22.80
45701;BMP280;36277;32.852;-116.998;2024-01-15T09:31:16;100278.19;;;22.78
45701;BMP280;36277;32.852;-116.998;2024-01-15T09:33:43;100272.00;;;22.76
45701;BMP280;36277;32.852;-116.998;2024-01-15T09:36:09;100272.88;;;22.76
45701;BMP280;36277;32.852;-116.998;2024-01-15T09:38:36;100272.34;;;22.73
45701;BMP280;36277;32.852;-116.998;2024-01-15T09:41:02;100277.03;;;22.72
45701;BMP280;36277;32.852;-116.998;2024-01-15T09:43:28;100275.47;;;22.70
45701;BMP280;36277;32.852;-116.998;2024-01-15T09:45:55;100275.47;;;22.70
45701;BMP280;36277;32.852;-116.998;2024-01-15T09:48:22;100283.06;;;22.68
45701;BMP280;36277;32.852;-116.998;2024-01-15T09:50:49;100283.25;;;22.66
45701;BMP280;36277;32.852;-116.998;2024-01-15T09:53:16;100288.06;;;22.64
45701;BMP280;36277;32.852;-116.998;2024-01-15T09:55:43;100285.66;;;22.61
45701;BMP280;36277;32.852;-116.998;2024-01-15T09:58:10;100287.59;;;22.61
45701;BMP280;36277;32.852;-116.998;2024-01-15T10:00:37;100291.38;;;22.60
45701;BMP280;36277;32.852;-116.998;2024-01-15T10:03:06;100294.28;;;22.58
45701;BMP280;36277;32.852;-116.998;2024-01-15T10:05:33;100293.78;;;22.55
45701;BMP280;36277;32.852;-116.998;2024-01-15T10:08:01;100298.44;;;22.54
45701;BMP280;36277;32.852;-116.998;2024-01-15T10:10:28;100289.00;;;22.49
45701;BMP280;36277;32.852;-116.998;2024-01-15T10:12:55;100303.44;;;22.51
45701;BMP280;36277;32.852;-116.998;2024-01-15T10:15:26;100303.44;;;22.51
45701;BMP280;36277;32.852;-116.998;2024-01-15T10:17:52;100303.78;;;22.48
45701;BMP280;36277;32.852;-116.998;2024-01-15T10:20:18;100295.72;;;22.46
45701;BMP280;36277;32.852;-116.998;2024-01-15T10:22:48;100300.56;;;22.44
45701;BMP280;36277;32.852;-116.998;2024-01-15T10:25:14;100299.69;;;22.44
45701;BMP280;36277;32.852;-116.998;2024-01-15T10:27:41;100300.72;;;22.43
45701;BMP280;36277;32.852;-116.998;2024-01-15T10:30:09;100291.81;;;22.41
45701;BMP280;36277;32.852;-116.998;2024-01-15T10:32:35;100293.00;;;22.38
45701;BMP280;36277;32.852;-116.998;2024-01-15T10:35:03;100295.94;;;22.37
45701;BMP280;36277;32.852;-116.998;2024-01-15T10:37:33;100298.69;;;22.37
45701;BMP280;36277;32.852;-116.998;2024-01-15T10:40:02;100299.06;;;22.34
45701;BMP280;36277;32.852;-116.998;2024-01-15T10:42:30;100291.13;;;22.31
45701;BMP280;36277;32.852;-116.998;2024-01-15T10:44:57;100285.81;;;22.29
45701;BMP280;36277;32.852;-116.998;2024-01-15T10:47:23;100295.94;;;22.29
45701;BMP280;36277;32.852;-116.998;2024-01-15T10:49:49;100289.75;;;22.27
45701;BMP280;36277;32.852;-116.998;2024-01-15T10:52:16;100300.75;;;22.27
45701;BMP280;36277;32.852;-116.998;2024-01-15T10:54:43;100297.31;;;22.25
45701;BMP280;36277;32.852;-116.998;2024-01-15T10:57:10;100292.88;;;22.24
45701;BMP280;36277;32.852;-116.998;2024-01-15T10:59:37;100289.44;;;22.22
45701;BMP280;36277;32.852;-116.998;2024-01-15T11:02:04;100290.47;;;22.21
45701;BMP280;36277;32.852;-116.998;2024-01-15T11:04:32;100289.78;;;22.19
45701;BMP280;36277;32.852;-116.998;2024-01-15T11:06:58;100288.25;;;22.16
45701;BMP280;36277;32.852;-116.998;2024-01-15T11:09:26;100293.06;;;22.14
45701;BMP280;36277;32.852;-116.998;2024-01-15T11:12:12;100291.38;;;22.13
45701;BMP280;36277;32.852;-116.998;2024-01-15T11:14:49;100291.56;;;22.12
45701;BMP280;36277;32.852;-116.998;2024-01-15T11:17:17;100293.63;;;22.10
45701;BMP280;36277;32.852;-116.998;2024-01-15T11:19:45;100291.91;;;22.09
45701;BMP280;36277;32.852;-116.998;2024-01-15T11:25:13;100278.66;;;22.04
45701;BMP280;36277;32.852;-116.998;2024-01-15T11:27:44;100278.19;;;22.01
45701;BMP280;36277;32.852;-116.998;2024-01-15T11:30:11;100279.06;;;22.01
45701;BMP280;36277;32.852;-116.998;2024-01-15T11:32:38;100280.25;;;21.99
45701;BMP280;36277;32.852;-116.998;2024-01-15T11:35:09;100268.41;;;21.98
45701;BMP280;36277;32.852;-116.998;2024-01-15T11:42:50;100263.81;;;21.91
45701;BMP280;36277;32.852;-116.998;2024-01-15T11:45:19;100259.16;;;21.91
45701;BMP280;36277;32.852;-116.998;2024-01-15T11:48:16;100251.94;;;21.90
45701;BMP280;36277;32.852;-116.998;2024-01-15T11:50:49;100255.22;;;21.86
45701;BMP280;36277;32.852;-116.998;2024-01-15T11:55:51;100248.00;;;21.85
45701;BMP280;36277;32.852;-116.998;2024-01-15T11:58:18;100248.16;;;21.84
45701;BMP280;36277;32.852;-116.998;2024-01-15T12:00:47;100250.06;;;21.83
45701;BMP280;36277;32.852;-116.998;2024-01-15T12:03:13;100244.94;;;21.80
45701;BMP280;36277;32.852;-116.998;2024-01-15T12:05:40;100241.50;;;21.78
45701;BMP280;36277;32.852;-116.998;2024-01-15T12:08:07;100243.41;;;21.78
45701;BMP280;36277;32.852;-116.998;2024-01-15T12:10:37;100233.59;;;21.75
45701;BMP280;36277;32.852;-116.998;2024-01-15T12:13:12;100229.81;;;21.76
45701;BMP280;36277;32.852;-116.998;2024-01-15T12:15:39;100236.69;;;21.72
45701;BMP280;36277;32.852;-116.998;2024-01-15T12:18:10;100231.22;;;21.72
45701;BMP280;36277;32.852;-116.998;2024-01-15T12:20:36;100232.25;;;21.71
45701;BMP280;36277;32.852;-116.998;2024-01-15T12:23:03;100235.34;;;21.68
45701;BMP280;36277;32.852;-116.998;2024-01-15T12:25:31;100238.94;;;21.69
45701;BMP280;36277;32.852;-116.998;2024-01-15T12:27:58;100237.44;;;21.66
45701;BMP280;36277;32.852;-116.998;2024-01-15T12:30:29;100240.19;;;21.66
45701;BMP280;36277;32.852;-116.998;2024-01-15T12:32:57;100231.41;;;21.63
45701;BMP280;36277;32.852;-116.998;2024-01-15T12:35:25;100233.31;;;21.62
45701;BMP280;36277;32.852;-116.998;2024-01-15T12:37:55;100230.03;;;21.59
45701;BMP280;36277;32.852;-116.998;2024-01-15T12:40:23;100227.13;;;21.60
45701;BMP280;36277;32.852;-116.998;2024-01-15T12:42:49;100231.94;;;21.58
45701;BMP280;36277;32.852;-116.998;2024-01-15T12:45:16;100230.19;;;21.57
45701;BMP280;36277;32.852;-116.998;2024-01-15T12:47:43;100222.31;;;21.54
45701;BMP280;36277;32.852;-116.998;2024-01-15T12:50:13;100230.34;;;21.56
45701;BMP280;36277;32.852;-116.998;2024-01-15T12:52:42;100229.66;;;21.54
45701;BMP280;36277;32.852;-116.998;2024-01-15T12:55:09;100232.59;;;21.52
45701;BMP280;36277;32.852;-116.998;2024-01-15T12:57:36;100229.34;;;21.49
45701;BMP280;36277;32.852;-116.998;2024-01-15T13:00:03;100230.38;;;21.48
45701;BMP280;36277;32.852;-116.998;2024-01-15T13:02:36;100225.25;;;21.45
45701;BMP280;36277;32.852;-116.998;2024-01-15T13:05:04;100222.31;;;21.46
45701;BMP280;36277;32.852;-116.998;2024-01-15T13:07:31;100222.84;;;21.42
45701;BMP280;36277;32.852;-116.998;2024-01-15T13:09:57;100221.97;;;21.41
45701;BMP280;36277;32.852;-116.998;2024-01-15T13:12:24;100211.38;;;21.38
45701;BMP280;36277;32.852;-116.998;2024-01-15T13:14:50;100209.66;;;21.37
45701;BMP280;36277;32.852;-116.998;2024-01-15T13:17:16;100209.81;;;21.36
45701;BMP280;36277;32.852;-116.998;2024-01-15T13:19:43;100220.78;;;21.36
45701;BMP280;36277;32.852;-116.998;2024-01-15T13:22:09;100214.59;;;21.34
45701;BMP280;36277;32.852;-116.998;2024-01-15T13:24:36;100222.00;;;21.33
45701;BMP280;36277;32.852;-116.998;2024-01-15T13:27:03;100216.84;;;21.30
45701;BMP280;36277;32.852;-116.998;2024-01-15T13:29:30;100212.41;;;21.29
45701;BMP280;36277;32.852;-116.998;2024-01-15T13:31:57;100219.75;;;21.29
45701;BMP280;36277;32.852;-116.998;2024-01-15T13:34:24;100226.47;;;21.26